KHMN/HMN METAR and TAF weather

Enter ICAO airport designator
Station Type Date Time Source
KHMN METAR 2019/10/19 06:58 UTC NOAA

KHMN 190658Z AUTO 35006KT 10SM CLR 14/03 A2994 RMK AO2 SLP080 T01410032 402620114 $


Station Type Date Time Source
KHMN Decoded METAR 2019/10/19 06:58 UTC NOAA

Holloman Air Force Base, NM, United States (KHMN) 32-51N 106-06W 1248M
Oct 19, 2019 - 02:58 AM EDT / 2019.10.19 0658 UTC
Wind: from the N (350 degrees) at 7 MPH (6 KT):0
Visibility: 10 mile(s):0
Sky conditions: clear
Temperature: 57.4 F (14.1 C)
Dew Point: 37.8 F (3.2 C)
Relative Humidity: 47%
Pressure (altimeter): 29.94 in. Hg (1013 hPa)
ob: KHMN 190658Z AUTO 35006KT 10SM CLR 14/03 A2994 RMK AO2 SLP080 T01410032 402620114
cycle: 7

Station Type Date Time Source
KHMN TAF 2019/10/19 00:26 UTC NOAA

TAF
AMD KHMN 190020Z 1900/1923 30012KT 9999 FEW080 QNH2984INS
BECMG 1905/1906 VRB06KT 9999 SKC QNH2990INS
BECMG 1917/1918 20012KT 9999 FEW150 QNH3001INS TX27/1922Z TN07/1912Z LAST NO
AMDS AFT 1900 NEXT 2109

Example: see airport list